Time;durP1;ratioP1;P1;durP2;ratioP2;P2;SDS_P1;SDS_P2;PMS_P1;PMS_P2;Temp;Humidity;BMP_temperature;BMP_pressure;BME280_temperature;BME280_humidity;BME280_pressure;Samples;Min_cycle;Max_cycle;Signal;HPM_P1;HPM_P2
2023/02/03 00:04:29;;;;;;;0.20;0.10;;;7.40;99.90;;;;;;21224022;27;20405;-67
2023/02/03 00:14:36;;;;;;;0.20;0.10;;;7.40;99.90;;;;;;21226603;27;20760;-67
2023/02/03 00:24:40;;;;;;;0.20;0.10;;;7.50;99.90;;;;;;21240679;27;20405;-68
2023/02/03 00:34:45;;;;;;;0.20;0.10;;;7.70;99.90;;;;;;21214573;27;20407;-68
2023/02/03 00:44:49;;;;;;;0.20;0.10;;;8.00;99.90;;;;;;21184505;27;20420;-67
2023/02/03 00:54:54;;;;;;;0.20;0.10;;;8.50;99.90;;;;;;21238633;27;20397;-67
2023/02/03 01:04:59;;;;;;;0.20;0.10;;;8.60;99.90;;;;;;21237926;27;20410;-67
2023/02/03 01:15:04;;;;;;;0.20;0.10;;;8.30;99.90;;;;;;21237136;27;20392;-67
2023/02/03 01:25:09;;;;;;;0.20;0.10;;;8.40;99.90;;;;;;21192129;27;20411;-65
2023/02/03 01:35:14;;;;;;;0.20;0.10;;;8.40;99.90;;;;;;21149418;28;20386;-65
2023/02/03 01:45:20;;;;;;;0.20;0.10;;;8.20;99.90;;;;;;21183591;27;20397;-65
2023/02/03 01:55:31;;;;;;;0.20;0.00;;;8.70;99.90;;;;;;21215892;27;20752;-65
2023/02/03 02:05:40;;;;;;;0.20;0.10;;;8.40;99.90;;;;;;21233576;27;20420;-66
2023/02/03 02:15:54;;;;;;;0.20;0.10;;;8.50;99.90;;;;;;21233023;27;21109;-66
2023/02/03 02:26:22;;;;;;;0.20;0.10;;;8.80;99.90;;;;;;21230712;27;20752;-69
2023/02/03 02:36:35;;;;;;;0.20;0.10;;;8.70;99.90;;;;;;21175334;27;20480;-69
2023/02/03 02:46:43;;;;;;;0.20;0.10;;;8.40;99.90;;;;;;21247132;27;20411;-68
2023/02/03 02:56:52;;;;;;;0.20;0.10;;;8.00;99.90;;;;;;21247993;27;20408;-67
2023/02/03 03:07:00;;;;;;;0.20;0.10;;;7.80;99.90;;;;;;21246922;27;20401;-67
2023/02/03 03:17:08;;;;;;;0.20;0.10;;;7.30;99.90;;;;;;21239653;27;20441;-67
2023/02/03 03:27:15;;;;;;;0.20;0.10;;;7.30;99.90;;;;;;21244995;27;20413;-67
2023/02/03 03:37:28;;;;;;;0.20;0.10;;;6.80;99.90;;;;;;21242392;27;20397;-67
2023/02/03 03:47:36;;;;;;;0.20;0.10;;;6.70;99.90;;;;;;21243308;27;20408;-67
2023/02/03 03:57:45;;;;;;;0.20;0.10;;;7.80;99.90;;;;;;21240945;27;20404;-66
2023/02/03 04:07:49;;;;;;;0.20;0.10;;;8.40;99.90;;;;;;21240836;27;20404;-66
2023/02/03 04:17:55;;;;;;;0.20;0.10;;;8.40;99.90;;;;;;21241703;27;20899;-67
2023/02/03 04:27:59;;;;;;;0.20;0.10;;;8.20;99.90;;;;;;21240693;27;20487;-67
2023/02/03 04:38:05;;;;;;;0.20;0.10;;;8.20;99.90;;;;;;21239563;27;20776;-67
2023/02/03 04:48:09;;;;;;;0.20;0.10;;;7.90;99.90;;;;;;21237212;27;20499;-67
2023/02/03 04:58:15;;;;;;;0.20;0.00;;;7.70;99.90;;;;;;21236455;27;20431;-68
2023/02/03 05:08:19;;;;;;;0.20;0.10;;;7.30;99.90;;;;;;21236685;27;20430;-66
2023/02/03 05:18:24;;;;;;;0.20;0.10;;;7.40;99.90;;;;;;21236638;27;21151;-68
2023/02/03 05:28:28;;;;;;;0.20;0.10;;;7.70;99.90;;;;;;21233954;27;20907;-67
2023/02/03 05:38:34;;;;;;;0.20;0.10;;;8.20;99.90;;;;;;21172237;27;20831;-68
2023/02/03 05:48:38;;;;;;;0.20;0.10;;;8.50;99.90;;;;;;21208764;27;20413;-68
2023/02/03 05:58:43;;;;;;;0.20;0.10;;;9.00;99.90;;;;;;21233058;27;20400;-68
2023/02/03 06:08:47;;;;;;;0.20;0.10;;;8.90;99.90;;;;;;21229525;27;20780;-66
2023/02/03 06:18:53;;;;;;;0.20;0.10;;;8.40;99.90;;;;;;21229547;27;20393;-67
2023/02/03 06:28:57;;;;;;;0.20;0.10;;;7.80;99.90;;;;;;21231320;27;20402;-68
2023/02/03 06:39:02;;;;;;;0.20;0.10;;;7.90;99.90;;;;;;21227768;27;20761;-67
2023/02/03 06:49:07;;;;;;;0.20;0.10;;;7.60;99.90;;;;;;21228351;27;20407;-67
2023/02/03 06:59:12;;;;;;;0.20;0.10;;;7.80;99.90;;;;;;21223831;28;20393;-68
2023/02/03 07:09:16;;;;;;;0.20;0.10;;;7.60;99.90;;;;;;21220419;28;20428;-69
2023/02/03 07:19:22;;;;;;;0.20;0.10;;;8.00;99.90;;;;;;21228160;27;20401;-69
2023/02/03 07:29:26;;;;;;;0.20;0.10;;;7.80;99.90;;;;;;21237504;27;20769;-70
2023/02/03 07:39:31;;;;;;;0.20;0.10;;;7.40;99.90;;;;;;21243275;27;20415;-69
2023/02/03 07:49:36;;;;;;;0.20;0.10;;;7.20;99.90;;;;;;21239557;27;20447;-71
2023/02/03 07:59:41;;;;;;;0.20;0.10;;;7.80;99.90;;;;;;21238153;27;20902;-68
2023/02/03 08:09:45;;;;;;;23.70;11.20;;;8.20;99.90;;;;;;21237170;27;20417;-69
2023/02/03 08:19:50;;;;;;;0.20;0.10;;;8.60;99.90;;;;;;21236862;27;20480;-69
2023/02/03 08:29:54;;;;;;;0.20;0.10;;;9.20;99.90;;;;;;21237556;27;20855;-68
2023/02/03 08:39:59;;;;;;;0.20;0.10;;;9.80;99.90;;;;;;21233769;27;20393;-65
2023/02/03 08:50:05;;;;;;;0.20;0.10;;;10.30;99.90;;;;;;21234061;27;20404;-68
2023/02/03 09:00:11;;;;;;;0.20;0.10;;;10.70;99.90;;;;;;21234548;27;20444;-67
2023/02/03 09:10:15;;;;;;;0.20;0.10;;;11.20;99.90;;;;;;21234188;27;20436;-66
2023/02/03 09:20:22;;;;;;;0.20;0.10;;;11.80;99.90;;;;;;21274863;27;20383;-68
2023/02/03 09:30:26;;;;;;;0.20;0.10;;;12.10;99.90;;;;;;21319070;27;20739;-70
2023/02/03 09:40:35;;;;;;;0.20;0.10;;;12.20;99.90;;;;;;21252711;27;20401;-67
2023/02/03 09:50:42;;;;;;;0.20;0.10;;;12.50;99.90;;;;;;21228323;27;20408;-66
2023/02/03 10:00:50;;;;;;;0.20;0.10;;;12.70;99.90;;;;;;21229549;27;20492;-69
2023/02/03 10:11:09;;;;;;;0.20;0.10;;;13.00;99.90;;;;;;21223522;27;20412;-69
2023/02/03 10:21:18;;;;;;;0.20;0.10;;;13.20;99.90;;;;;;21225269;27;20404;-70
2023/02/03 10:31:23;;;;;;;0.20;0.10;;;13.30;99.90;;;;;;21227893;27;20404;-68
2023/02/03 10:41:30;;;;;;;0.20;0.10;;;13.90;99.90;;;;;;21215743;27;20432;-68
2023/02/03 10:51:40;;;;;;;0.20;0.10;;;14.20;99.90;;;;;;21142522;28;20916;-68
2023/02/03 11:01:49;;;;;;;0.20;0.10;;;14.80;99.90;;;;;;21147540;28;20494;-69
2023/02/03 11:12:06;;;;;;;0.20;0.10;;;15.30;99.90;;;;;;21158849;28;20412;-68
2023/02/03 11:22:11;;;;;;;0.20;0.10;;;16.20;99.90;;;;;;21157192;28;20499;-67
2023/02/03 11:32:20;;;;;;;0.20;0.20;;;16.70;99.90;;;;;;21155151;27;20418;-69
2023/02/03 11:42:25;;;;;;;0.20;0.10;;;17.30;99.90;;;;;;21154665;28;21023;-68
2023/02/03 11:52:47;;;;;;;0.20;0.10;;;18.00;99.90;;;;;;21156334;28;20414;-68
2023/02/03 12:03:37;;;;;;;0.20;0.10;;;18.20;99.90;;;;;;21155671;28;20394;-65
2023/02/03 12:13:58;;;;;;;0.20;0.10;;;18.20;99.90;;;;;;21143386;27;20834;-67
2023/02/03 12:24:09;;;;;;;0.20;0.10;;;18.30;99.90;;;;;;21230577;27;20726;-68
2023/02/03 12:34:19;;;;;;;0.20;0.10;;;18.50;99.90;;;;;;21232542;27;20425;-68
2023/02/03 12:44:29;;;;;;;9.50;8.50;;;19.20;99.90;;;;;;21234999;27;20420;-67
2023/02/03 12:54:44;;;;;;;0.20;0.00;;;20.00;99.90;;;;;;21235249;27;20409;-68
2023/02/03 13:04:55;;;;;;;0.20;0.10;;;19.80;99.90;;;;;;21234170;27;20381;-68
2023/02/03 13:15:10;;;;;;;0.20;0.10;;;20.60;99.90;;;;;;21233412;27;20949;-68
2023/02/03 13:25:23;;;;;;;0.20;0.10;;;20.30;99.90;;;;;;21233300;27;20393;-67
2023/02/03 13:35:51;;;;;;;0.20;0.03;;;19.40;99.90;;;;;;21208134;27;20411;-68
2023/02/03 13:45:57;;;;;;;0.20;0.10;;;18.90;99.90;;;;;;21143006;28;20504;-69
2023/02/03 13:56:03;;;;;;;0.20;0.10;;;19.30;99.90;;;;;;21143480;28;20769;-70
2023/02/03 14:06:25;;;;;;;0.20;0.03;;;19.70;99.90;;;;;;21144879;28;20467;-68
2023/02/03 14:16:35;;;;;;;0.20;0.10;;;19.70;99.90;;;;;;21144285;28;20446;-67
2023/02/03 14:26:43;;;;;;;0.20;0.00;;;20.60;99.90;;;;;;21143512;28;20383;-67
2023/02/03 14:36:53;;;;;;;0.20;0.00;;;20.70;99.90;;;;;;21143012;28;20980;-69
2023/02/03 14:47:12;;;;;;;0.20;0.00;;;21.60;99.90;;;;;;21142358;28;20391;-67
2023/02/03 14:57:28;;;;;;;0.20;0.10;;;21.40;99.90;;;;;;21223719;28;20389;-68
2023/02/03 15:07:43;;;;;;;0.20;0.00;;;21.00;99.90;;;;;;21226144;28;20747;-68
2023/02/03 15:17:48;;;;;;;0.20;0.10;;;21.40;99.90;;;;;;21226676;28;20738;-67
2023/02/03 15:27:54;;;;;;;0.20;0.00;;;21.20;99.90;;;;;;21225340;28;20401;-67
2023/02/03 15:38:02;;;;;;;0.20;0.05;;;21.40;99.90;;;;;;21182678;28;20505;-68
2023/02/03 15:48:15;;;;;;;0.20;0.10;;;19.30;99.90;;;;;;21140166;28;20409;-66
2023/02/03 15:58:23;;;;;;;0.20;0.10;;;18.60;99.90;;;;;;21132815;28;20724;-67
2023/02/03 16:08:40;;;;;;;0.20;0.10;;;17.60;99.90;;;;;;21149298;28;20418;-68
2023/02/03 16:18:51;;;;;;;0.20;0.00;;;17.80;99.90;;;;;;21147911;28;20425;-66
2023/02/03 17:00:28;;;;;;;0.20;0.10;;;14.00;99.90;;;;;;21146461;28;20453;-66
2023/02/03 17:10:35;;;;;;;0.20;0.10;;;13.20;99.90;;;;;;21218416;27;20397;-67
2023/02/03 17:20:40;;;;;;;0.20;0.10;;;12.50;99.90;;;;;;21233458;27;20544;-67
2023/02/03 17:30:55;;;;;;;0.20;0.08;;;12.00;99.90;;;;;;21232716;27;20409;-68
2023/02/03 17:40:59;;;;;;;0.20;0.10;;;11.70;99.90;;;;;;21152637;27;20422;-68
2023/02/03 17:51:24;;;;;;;0.20;0.10;;;11.10;99.90;;;;;;21144403;27;20398;-67
2023/02/03 18:01:46;;;;;;;0.20;0.10;;;10.90;99.90;;;;;;21144771;28;20406;-68
2023/02/03 18:11:52;;;;;;;0.20;0.00;;;10.70;99.90;;;;;;21143891;28;20734;-68
2023/02/03 18:21:55;;;;;;;0.20;0.10;;;10.40;99.90;;;;;;21144484;28;20391;-63
2023/02/03 18:32:01;;;;;;;0.20;0.10;;;10.30;99.90;;;;;;21143050;28;20401;-69
2023/02/03 18:42:06;;;;;;;0.20;0.10;;;9.90;99.90;;;;;;21142986;28;20467;-67
2023/02/03 18:52:12;;;;;;;0.20;0.10;;;9.60;99.90;;;;;;21124658;28;21035;-69
2023/02/03 19:02:16;;;;;;;0.20;0.10;;;9.50;99.90;;;;;;21141701;28;20393;-67
2023/02/03 19:12:21;;;;;;;0.20;0.10;;;9.20;99.90;;;;;;21139000;28;20555;-67
2023/02/03 19:22:25;;;;;;;0.20;0.10;;;9.00;99.90;;;;;;21200181;27;20894;-68
2023/02/03 19:32:31;;;;;;;0.20;0.10;;;9.00;99.90;;;;;;21238394;27;20462;-68
2023/02/03 19:42:35;;;;;;;0.20;0.10;;;8.70;99.90;;;;;;21231081;27;20401;-67
2023/02/03 19:52:41;;;;;;;0.20;0.10;;;8.80;99.90;;;;;;21236081;27;20500;-67
2023/02/03 20:02:45;;;;;;;0.20;0.10;;;8.60;99.90;;;;;;21236162;27;20405;-68
2023/02/03 20:12:50;;;;;;;0.20;0.10;;;8.60;99.90;;;;;;21235613;27;20555;-68
2023/02/03 20:22:55;;;;;;;0.20;0.10;;;8.30;99.90;;;;;;21214194;27;20800;-69
2023/02/03 20:33:00;;;;;;;0.20;0.10;;;8.40;99.90;;;;;;21229969;27;20892;-68
2023/02/03 20:43:12;;;;;;;0.20;0.10;;;8.10;99.90;;;;;;21230495;27;20704;-67
2023/02/03 20:53:19;;;;;;;0.20;0.10;;;7.80;99.90;;;;;;21228730;27;20416;-67
2023/02/03 21:13:48;;;;;;;0.20;0.10;;;7.80;99.90;;;;;;21229543;27;20408;-66
2023/02/03 21:23:53;;;;;;;0.20;0.10;;;7.50;99.90;;;;;;21229913;27;20397;-67
2023/02/03 21:34:00;;;;;;;0.20;0.10;;;7.80;99.90;;;;;;21187138;27;20402;-67
2023/02/03 21:44:28;;;;;;;0.20;0.10;;;7.80;99.90;;;;;;21172238;27;20840;-67
2023/02/03 21:54:36;;;;;;;0.20;0.10;;;8.30;99.90;;;;;;21231368;27;20404;-67
2023/02/03 22:04:39;;;;;;;0.20;0.10;;;9.30;99.90;;;;;;21230128;27;20484;-68
2023/02/03 22:14:44;;;;;;;0.20;0.10;;;9.90;99.90;;;;;;21210848;27;20410;-67
2023/02/03 22:24:48;;;;;;;0.20;0.10;;;10.30;99.90;;;;;;21143718;28;20402;-66
2023/02/03 22:34:53;;;;;;;0.20;0.10;;;10.80;99.90;;;;;;21144709;28;20437;-67
2023/02/03 22:45:00;;;;;;;0.20;0.10;;;11.00;99.90;;;;;;21196830;27;20779;-68
2023/02/03 22:55:06;;;;;;;0.20;0.10;;;11.10;99.90;;;;;;21209968;28;20460;-67
2023/02/03 23:05:10;;;;;;;0.20;0.10;;;10.50;99.90;;;;;;21187280;27;20442;-67
2023/02/03 23:15:17;;;;;;;0.20;0.10;;;10.10;99.90;;;;;;21227372;27;20752;-68
2023/02/03 23:25:21;;;;;;;0.20;0.10;;;9.80;99.90;;;;;;21214084;27;20465;-68
2023/02/03 23:45:47;;;;;;;0.20;0.10;;;9.60;99.90;;;;;;21198938;27;20426;-67
2023/02/03 23:55:52;;;;;;;0.20;0.10;;;9.60;99.90;;;;;;21152917;28;20411;-67
